createdAt,value
2019-02-26T00:01:05.447Z,26.87
2019-02-26T00:02:06.606Z,26.91
2019-02-26T00:03:07.746Z,26.90
2019-02-26T00:04:08.895Z,26.90
2019-02-26T00:05:10.034Z,26.92
2019-02-26T00:06:11.180Z,26.95
2019-02-26T00:07:14.232Z,26.93
2019-02-26T00:08:19.394Z,26.87
2019-02-26T00:09:22.371Z,26.63
2019-02-26T00:10:24.768Z,26.80
2019-02-26T00:11:26.710Z,26.85
2019-02-26T00:12:28.785Z,26.85
2019-02-26T00:13:31.938Z,26.90
2019-02-26T00:14:33.711Z,26.94
2019-02-26T00:15:35.843Z,26.95
2019-02-26T00:16:39.994Z,26.89
2019-02-26T00:17:43.176Z,26.78
2019-02-26T00:18:44.080Z,26.88
2019-02-26T00:19:45.219Z,26.86
2019-02-26T00:20:46.462Z,26.86
2019-02-26T00:21:49.634Z,26.85
2019-02-26T00:22:50.667Z,26.83
2019-02-26T00:23:53.140Z,26.86
2019-02-26T00:24:54.467Z,26.92
2019-02-26T00:25:55.621Z,26.95
2019-02-26T00:26:58.527Z,26.97
2019-02-26T00:27:59.914Z,26.98
2019-02-26T00:29:01.860Z,26.96
2019-02-26T00:30:11.323Z,26.94
2019-02-26T00:31:13.960Z,26.91
2019-02-26T00:32:16.167Z,26.88
2019-02-26T00:33:19.567Z,26.89
2019-02-26T00:34:21.319Z,26.93
2019-02-26T00:35:23.589Z,26.98
2019-02-26T00:36:27.121Z,26.93
2019-02-26T00:37:30.591Z,26.99
2019-02-26T00:38:33.056Z,26.98
2019-02-26T00:39:34.675Z,26.96
2019-02-26T00:40:37.115Z,26.97
2019-02-26T00:41:40.385Z,26.92
2019-02-26T00:42:41.713Z,26.97
2019-02-26T00:43:42.872Z,26.95
2019-02-26T00:44:44.098Z,26.96
2019-02-26T00:45:45.238Z,26.93
2019-02-26T00:46:46.380Z,26.92
2019-02-26T00:47:47.523Z,26.91
2019-02-26T00:48:48.675Z,26.90
2019-02-26T00:49:51.111Z,26.92
2019-02-26T00:50:54.387Z,26.93
2019-02-26T00:51:56.003Z,26.98
2019-02-26T00:52:59.401Z,27.00
2019-02-26T00:54:01.843Z,26.96
2019-02-26T00:55:05.400Z,27.00
2019-02-26T00:56:09.773Z,27.00
2019-02-26T00:57:11.523Z,27.00
2019-02-26T00:58:13.579Z,27.01
2019-02-26T00:59:14.759Z,27.02
2019-02-26T01:00:16.408Z,26.99
2019-02-26T01:01:19.397Z,27.00
2019-02-26T01:02:20.599Z,26.99
2019-02-26T01:03:21.738Z,27.02
2019-02-26T01:04:22.893Z,26.96
2019-02-26T01:05:24.030Z,27.01
2019-02-26T01:06:26.807Z,27.01
2019-02-26T01:07:30.279Z,27.03
2019-02-26T01:08:31.481Z,27.00
2019-02-26T01:09:33.999Z,27.03
2019-02-26T01:10:37.542Z,27.02
2019-02-26T01:11:38.470Z,27.04
2019-02-26T01:12:40.208Z,27.06
2019-02-26T01:13:42.758Z,27.12
2019-02-26T01:14:45.799Z,27.12
2019-02-26T01:15:47.058Z,27.07
2019-02-26T01:16:48.354Z,27.04
2019-02-26T01:17:49.547Z,27.04
2019-02-26T01:18:51.477Z,27.11
2019-02-26T01:19:54.361Z,27.11
2019-02-26T01:20:57.911Z,27.04
2019-02-26T01:21:59.987Z,27.01
2019-02-26T01:23:01.234Z,27.04
2019-02-26T01:24:04.216Z,26.99
2019-02-26T01:25:07.132Z,27.02
2019-02-26T01:26:10.060Z,27.05
2019-02-26T01:27:11.319Z,27.06
2019-02-26T01:28:16.106Z,27.07
2019-02-26T01:29:18.605Z,26.99
2019-02-26T01:30:23.569Z,26.97
2019-02-26T01:31:22.493Z,27.01
2019-02-26T01:32:24.987Z,26.98
2019-02-26T01:33:27.781Z,26.95
2019-02-26T01:34:29.163Z,26.97
2019-02-26T01:35:32.945Z,26.98
2019-02-26T01:36:33.764Z,27.01
2019-02-26T01:37:36.606Z,26.98
2019-02-26T01:38:41.553Z,27.05
2019-02-26T01:39:42.985Z,27.09
2019-02-26T01:40:46.075Z,27.11
2019-02-26T01:41:47.836Z,27.07
2019-02-26T01:42:52.897Z,27.04
2019-02-26T01:43:53.292Z,27.03
2019-02-26T01:44:54.434Z,27.09
2019-02-26T01:45:55.586Z,27.08
2019-02-26T01:46:58.284Z,27.00
2019-02-26T01:47:59.887Z,27.01
2019-02-26T01:49:02.174Z,27.06
2019-02-26T01:50:08.758Z,27.08
2019-02-26T01:51:09.535Z,27.05
2019-02-26T01:52:12.705Z,27.06
2019-02-26T01:53:14.597Z,27.06
2019-02-26T01:54:16.902Z,27.04
2019-02-26T01:55:18.883Z,27.08
2019-02-26T01:56:21.268Z,27.05
2019-02-26T01:57:22.411Z,27.09
2019-02-26T01:58:23.553Z,27.09
2019-02-26T01:59:24.799Z,27.14
2019-02-26T02:00:26.100Z,27.19
2019-02-26T02:01:27.772Z,27.16
2019-02-26T02:02:30.308Z,27.15
2019-02-26T02:03:32.618Z,27.14
2019-02-26T02:04:34.893Z,27.17
2019-02-26T02:05:37.052Z,27.17
2019-02-26T02:06:39.180Z,27.10
2019-02-26T02:07:41.282Z,27.09
2019-02-26T02:08:45.434Z,27.09
2019-02-26T02:09:48.653Z,27.10
2019-02-26T02:10:51.403Z,27.12
2019-02-26T02:11:51.805Z,27.11
2019-02-26T02:12:55.227Z,27.04
2019-02-26T02:13:56.001Z,27.12
2019-02-26T02:14:57.147Z,27.12
2019-02-26T02:15:59.729Z,27.14
2019-02-26T02:17:03.514Z,27.15
2019-02-26T02:18:06.117Z,27.15
2019-02-26T02:19:07.512Z,27.11
2019-02-26T02:20:18.084Z,27.09
2019-02-26T02:21:18.228Z,27.21
2019-02-26T02:22:21.250Z,27.23
2019-02-26T02:23:23.570Z,27.20
2019-02-26T02:24:25.493Z,27.14
2019-02-26T02:25:29.017Z,27.11
2019-02-26T02:26:29.671Z,27.13
2019-02-26T02:27:33.140Z,27.09
2019-02-26T02:28:35.628Z,27.12
2019-02-26T02:29:37.011Z,27.12
2019-02-26T02:30:39.065Z,27.12
2019-02-26T02:31:40.392Z,27.16
2019-02-26T02:32:41.544Z,27.13
2019-02-26T02:33:42.691Z,27.17
2019-02-26T02:34:44.175Z,27.13
2019-02-26T02:35:45.418Z,27.13
2019-02-26T02:36:46.579Z,27.06
2019-02-26T02:37:47.744Z,27.08
2019-02-26T02:38:48.882Z,27.16
2019-02-26T02:39:50.032Z,27.18
2019-02-26T02:40:52.542Z,27.14
2019-02-26T02:41:54.943Z,27.12
2019-02-26T02:42:56.277Z,27.15
2019-02-26T02:43:57.423Z,27.16
2019-02-26T02:44:58.561Z,27.16
2019-02-26T02:46:01.351Z,27.19
2019-02-26T02:47:04.289Z,27.20
2019-02-26T02:48:06.270Z,27.18
2019-02-26T02:49:09.830Z,27.22
2019-02-26T02:50:15.280Z,27.21
2019-02-26T02:51:16.037Z,27.19
2019-02-26T02:52:17.180Z,27.24
2019-02-26T02:53:21.072Z,27.25
2019-02-26T02:54:23.476Z,27.24
2019-02-26T02:55:24.590Z,27.28
2019-02-26T02:56:25.843Z,27.30
2019-02-26T02:57:29.455Z,27.29
2019-02-26T02:58:30.030Z,27.28
2019-02-26T02:59:33.990Z,27.28
2019-02-26T03:00:34.530Z,27.28
2019-02-26T03:01:35.761Z,27.27
2019-02-26T03:02:40.492Z,27.29
2019-02-26T03:03:40.069Z,27.31
2019-02-26T03:04:41.248Z,27.29
2019-02-26T03:05:43.817Z,27.32
2019-02-26T03:06:45.435Z,27.28
2019-02-26T03:07:50.753Z,27.26
2019-02-26T03:08:50.988Z,27.31
2019-02-26T03:09:52.825Z,27.32
2019-02-26T03:10:53.963Z,27.30
2019-02-26T03:11:55.123Z,27.28
2019-02-26T03:12:57.787Z,27.28
2019-02-26T03:13:59.438Z,27.30
2019-02-26T03:15:02.355Z,27.33
2019-02-26T03:16:03.748Z,27.33
2019-02-26T03:17:06.394Z,27.36
2019-02-26T03:18:09.881Z,27.33
2019-02-26T03:19:12.192Z,27.29
2019-02-26T03:20:14.397Z,27.31
2019-02-26T03:21:16.800Z,27.31
2019-02-26T03:22:21.423Z,27.32
2019-02-26T03:23:21.736Z,27.36
2019-02-26T03:24:25.499Z,27.35
2019-02-26T03:25:27.192Z,27.31
2019-02-26T03:26:28.994Z,27.32
2019-02-26T03:27:31.165Z,27.28
2019-02-26T03:28:37.116Z,27.31
2019-02-26T03:29:36.253Z,27.29
2019-02-26T03:30:40.172Z,27.34
2019-02-26T03:31:46.271Z,27.32
2019-02-26T03:32:45.918Z,27.33
2019-02-26T03:33:46.540Z,27.30
2019-02-26T03:34:47.711Z,27.30
2019-02-26T03:35:49.198Z,27.37
2019-02-26T03:36:50.340Z,27.36
2019-02-26T03:37:54.599Z,27.34
2019-02-26T03:38:56.580Z,27.28
2019-02-26T03:39:59.955Z,27.36
2019-02-26T03:41:03.270Z,27.32
2019-02-26T03:42:04.067Z,27.35
2019-02-26T03:43:07.500Z,27.35
2019-02-26T03:44:08.846Z,27.40
2019-02-26T03:45:12.816Z,27.41
2019-02-26T03:46:13.957Z,27.42
2019-02-26T03:47:16.288Z,27.41
2019-02-26T03:48:20.250Z,27.35
2019-02-26T03:49:26.399Z,27.39
2019-02-26T03:50:27.058Z,27.45
2019-02-26T03:51:27.433Z,27.47
2019-02-26T03:52:29.009Z,27.48
2019-02-26T03:53:34.245Z,27.43
2019-02-26T03:54:37.199Z,27.45
2019-02-26T03:55:39.151Z,27.46
2019-02-26T03:56:40.759Z,27.43
2019-02-26T03:57:46.915Z,27.45
2019-02-26T03:58:45.337Z,27.48
2019-02-26T03:59:46.583Z,27.48
2019-02-26T04:00:47.860Z,27.45
2019-02-26T04:01:48.995Z,27.50
2019-02-26T04:02:51.632Z,27.46
2019-02-26T04:03:54.657Z,27.47
2019-02-26T04:04:57.086Z,27.50
2019-02-26T04:06:00.418Z,27.50
2019-02-26T04:07:10.688Z,27.44
2019-02-26T04:08:11.157Z,27.47
2019-02-26T04:09:15.942Z,27.45
2019-02-26T04:10:15.555Z,27.46
2019-02-26T04:11:19.401Z,27.46
2019-02-26T04:12:20.884Z,27.47
2019-02-26T04:13:22.315Z,27.46
2019-02-26T04:14:25.592Z,27.48
2019-02-26T04:15:27.883Z,27.52
2019-02-26T04:16:32.019Z,27.55
2019-02-26T04:17:33.655Z,27.53
2019-02-26T04:18:36.123Z,27.54
2019-02-26T04:19:37.417Z,27.52
2019-02-26T04:20:43.372Z,27.52
2019-02-26T04:22:20.987Z,27.41
2019-02-26T04:23:22.041Z,27.46
2019-02-26T04:24:25.763Z,27.42
2019-02-26T04:25:42.273Z,27.50
2019-02-26T04:27:05.391Z,27.49
2019-02-26T04:28:13.133Z,27.50
2019-02-26T04:29:17.840Z,27.48
2019-02-26T04:30:36.522Z,27.47
2019-02-26T04:31:54.679Z,27.54
2019-02-26T04:33:07.208Z,27.50
2019-02-26T04:34:12.115Z,27.52
2019-02-26T04:35:16.128Z,27.53
2019-02-26T04:36:23.658Z,27.54
2019-02-26T04:37:38.588Z,27.57
2019-02-26T04:39:22.105Z,27.57
2019-02-26T04:40:28.327Z,27.55
2019-02-26T04:41:32.734Z,27.51
2019-02-26T04:42:46.134Z,27.59
2019-02-26T04:44:06.120Z,27.62
2019-02-26T04:45:20.233Z,27.65
2019-02-26T04:46:25.528Z,27.62
2019-02-26T04:47:33.832Z,27.65
2019-02-26T04:48:41.020Z,27.72
2019-02-26T04:49:42.997Z,27.71
2019-02-26T04:50:44.662Z,27.72
2019-02-26T04:51:47.953Z,27.71
2019-02-26T04:52:48.977Z,27.72
2019-02-26T04:53:51.905Z,27.71
2019-02-26T04:54:53.152Z,27.77
2019-02-26T04:55:54.268Z,27.73
2019-02-26T04:56:55.584Z,27.72
2019-02-26T04:57:56.798Z,27.70
2019-02-26T04:58:58.092Z,27.72
2019-02-26T05:00:01.243Z,27.74
2019-02-26T05:01:04.235Z,27.75
2019-02-26T05:02:05.333Z,27.74
2019-02-26T05:03:08.627Z,27.70
2019-02-26T05:04:09.604Z,27.71
2019-02-26T05:05:10.693Z,27.73
2019-02-26T05:06:11.924Z,27.72
2019-02-26T05:07:16.102Z,27.70
2019-02-26T05:08:17.759Z,27.68
2019-02-26T05:09:19.194Z,27.64
2019-02-26T05:10:21.054Z,27.65
2019-02-26T05:11:31.769Z,27.69
2019-02-26T05:12:30.256Z,27.63
2019-02-26T05:13:32.125Z,27.64
2019-02-26T05:14:32.419Z,27.68
2019-02-26T05:15:33.538Z,27.66
2019-02-26T05:16:37.001Z,27.67
2019-02-26T05:17:37.649Z,27.66
2019-02-26T05:18:39.039Z,27.66
2019-02-26T05:19:43.445Z,27.67
2019-02-26T05:20:48.099Z,27.67
2019-02-26T05:21:46.449Z,27.72
2019-02-26T05:22:48.161Z,27.63
2019-02-26T05:23:51.782Z,27.62
2019-02-26T05:24:52.870Z,27.63
2019-02-26T05:25:59.857Z,27.63
2019-02-26T05:26:58.130Z,27.63
2019-02-26T05:27:59.344Z,27.61
2019-02-26T05:29:00.457Z,27.65
2019-02-26T05:30:01.586Z,27.65
2019-02-26T05:31:03.637Z,27.66
2019-02-26T05:32:07.266Z,27.65
2019-02-26T05:33:08.837Z,27.64
2019-02-26T05:34:12.219Z,27.64
2019-02-26T05:35:14.378Z,27.64
2019-02-26T05:36:17.242Z,27.64
2019-02-26T05:37:18.556Z,27.65
2019-02-26T05:38:19.691Z,27.67
2019-02-26T05:39:21.738Z,27.66
2019-02-26T05:40:26.980Z,27.68
2019-02-26T05:41:28.094Z,27.67
2019-02-26T05:42:29.208Z,27.57
2019-02-26T05:43:33.172Z,27.61
2019-02-26T05:44:33.342Z,27.60
2019-02-26T05:45:35.617Z,27.60
2019-02-26T05:46:37.104Z,27.63
2019-02-26T05:47:38.329Z,27.62
2019-02-26T05:48:40.692Z,27.65
2019-02-26T05:49:45.356Z,27.63
2019-02-26T05:50:45.779Z,27.66
2019-02-26T05:51:46.997Z,27.66
2019-02-26T05:52:50.392Z,27.59
2019-02-26T05:53:51.130Z,27.66
2019-02-26T05:54:52.739Z,27.67
2019-02-26T05:55:55.972Z,27.71
2019-02-26T05:56:57.122Z,27.66
2019-02-26T05:57:58.233Z,27.70
2019-02-26T05:59:02.097Z,27.68
2019-02-26T06:00:04.766Z,27.72
2019-02-26T06:01:06.002Z,27.74
2019-02-26T06:02:07.124Z,27.74
2019-02-26T06:03:09.663Z,27.70
2019-02-26T06:04:12.310Z,27.68
2019-02-26T06:05:17.129Z,27.71
2019-02-26T06:06:17.522Z,27.75
2019-02-26T06:07:21.754Z,27.73
2019-02-26T06:08:25.658Z,27.72
2019-02-26T06:09:26.120Z,27.72
2019-02-26T06:10:29.845Z,27.71
2019-02-26T06:11:33.424Z,27.71
2019-02-26T06:12:35.581Z,27.67
2019-02-26T06:13:38.256Z,27.63
2019-02-26T06:14:40.105Z,27.58
2019-02-26T06:15:41.220Z,27.55
2019-02-26T06:16:43.223Z,27.51
2019-02-26T06:17:46.317Z,27.48
2019-02-26T06:18:49.118Z,27.43
2019-02-26T06:19:53.055Z,27.33
2019-02-26T06:20:56.013Z,27.27
2019-02-26T06:21:57.305Z,27.21
2019-02-26T06:22:58.424Z,27.14
2019-02-26T06:23:59.542Z,27.07
2019-02-26T06:25:04.077Z,26.97
2019-02-26T06:26:13.306Z,26.90
2019-02-26T06:27:13.024Z,26.80
2019-02-26T06:28:13.588Z,26.76
2019-02-26T06:29:15.465Z,26.66
2019-02-26T06:30:16.906Z,26.57
2019-02-26T06:31:19.878Z,26.47
2019-02-26T06:32:21.036Z,26.36
2019-02-26T06:33:22.153Z,26.32
2019-02-26T06:34:23.270Z,26.26
2019-02-26T06:35:24.387Z,26.18
2019-02-26T06:36:26.521Z,26.09
2019-02-26T06:37:30.814Z,26.04
2019-02-26T06:38:32.837Z,25.92
2019-02-26T06:39:36.308Z,25.83
2019-02-26T06:40:39.274Z,25.81
2019-02-26T06:41:41.931Z,25.74
2019-02-26T06:42:43.699Z,25.70
2019-02-26T06:43:47.702Z,25.63
2019-02-26T06:44:49.419Z,25.59
2019-02-26T06:45:50.866Z,25.55
2019-02-26T06:46:51.983Z,25.46
2019-02-26T06:47:54.628Z,25.42
2019-02-26T06:48:56.132Z,25.37
2019-02-26T06:49:57.247Z,25.34
2019-02-26T06:51:00.438Z,25.27
2019-02-26T06:52:01.378Z,25.25
2019-02-26T06:53:04.379Z,25.20
2019-02-26T06:54:05.565Z,25.14
2019-02-26T06:55:08.880Z,25.14
2019-02-26T06:56:09.992Z,25.12
2019-02-26T06:57:11.108Z,25.08
2019-02-26T06:58:17.963Z,25.04
2019-02-26T06:59:29.465Z,25.03
2019-02-26T07:00:30.877Z,24.96
2019-02-26T07:01:32.794Z,24.96
2019-02-26T07:02:35.015Z,24.93
2019-02-26T07:03:36.146Z,24.90
2019-02-26T07:04:37.257Z,24.91
2019-02-26T07:05:38.483Z,24.89
2019-02-26T07:06:39.596Z,24.90
2019-02-26T07:07:40.908Z,24.86
2019-02-26T07:08:44.030Z,24.83
2019-02-26T07:09:45.094Z,24.80
2019-02-26T07:10:46.219Z,24.79
2019-02-26T07:11:47.357Z,24.78
2019-02-26T07:12:50.616Z,24.73
2019-02-26T07:13:53.706Z,24.75
2019-02-26T07:14:55.481Z,24.74
2019-02-26T07:15:57.953Z,24.69
2019-02-26T07:16:59.626Z,24.72
2019-02-26T07:18:04.395Z,24.72
2019-02-26T07:19:06.409Z,24.70
2019-02-26T07:20:08.010Z,24.72
2019-02-26T07:21:09.129Z,24.71
2019-02-26T07:22:11.600Z,24.76
2019-02-26T07:23:15.443Z,24.74
2019-02-26T07:24:18.077Z,24.72
2019-02-26T07:25:19.316Z,24.72
2019-02-26T07:26:20.819Z,24.72
2019-02-26T07:27:23.551Z,24.72
2019-02-26T07:28:26.838Z,24.75
2019-02-26T07:29:30.716Z,24.73
2019-02-26T07:30:32.612Z,24.70
2019-02-26T07:31:35.544Z,24.73
2019-02-26T07:32:38.262Z,24.65
2019-02-26T07:33:39.912Z,24.72
2019-02-26T07:34:42.792Z,24.76
2019-02-26T07:35:44.217Z,24.74
2019-02-26T07:36:46.100Z,24.73
2019-02-26T07:37:48.456Z,24.75
2019-02-26T07:38:51.979Z,24.77
2019-02-26T07:39:52.741Z,24.78
2019-02-26T07:40:54.323Z,24.82
2019-02-26T07:41:56.874Z,24.76
2019-02-26T07:42:58.007Z,24.82
2019-02-26T07:44:00.090Z,24.79
2019-02-26T07:45:01.256Z,24.78
2019-02-26T07:46:02.477Z,24.83
2019-02-26T07:47:06.088Z,24.83
2019-02-26T07:48:06.652Z,24.83
2019-02-26T07:49:07.881Z,24.84
2019-02-26T07:50:12.406Z,24.84
2019-02-26T07:51:13.424Z,24.86
2019-02-26T07:52:14.545Z,24.86
2019-02-26T07:53:17.964Z,24.91
2019-02-26T07:54:18.680Z,24.89
2019-02-26T07:55:19.932Z,24.88
2019-02-26T07:56:22.978Z,24.89
2019-02-26T07:57:25.883Z,24.88
2019-02-26T07:58:27.186Z,24.89
2019-02-26T07:59:32.353Z,24.88
2019-02-26T08:00:32.888Z,24.89
2019-02-26T08:01:35.422Z,24.90
2019-02-26T08:02:37.469Z,24.91
2019-02-26T08:03:38.584Z,24.91
2019-02-26T08:04:41.821Z,24.91
2019-02-26T08:05:42.760Z,24.91
2019-02-26T08:06:43.880Z,24.94
2019-02-26T08:07:46.641Z,24.92
2019-02-26T08:08:48.953Z,24.91
2019-02-26T08:09:50.125Z,24.96
2019-02-26T08:10:53.119Z,24.94
2019-02-26T08:11:54.291Z,24.90
2019-02-26T08:12:56.673Z,24.87
2019-02-26T08:13:59.252Z,24.89
2019-02-26T08:15:10.145Z,24.87
2019-02-26T08:16:10.946Z,24.87
2019-02-26T08:17:12.056Z,24.88
2019-02-26T08:18:13.170Z,24.86
2019-02-26T08:19:14.283Z,24.85
2019-02-26T08:20:15.449Z,24.86
2019-02-26T08:21:17.656Z,24.80
2019-02-26T08:22:19.594Z,24.80
2019-02-26T08:23:21.653Z,24.79
2019-02-26T08:24:24.632Z,24.83
2019-02-26T08:25:25.960Z,24.82
2019-02-26T08:26:29.137Z,24.80
2019-02-26T08:27:30.867Z,24.76
2019-02-26T08:28:33.153Z,24.77
2019-02-26T08:29:36.128Z,24.77
2019-02-26T08:30:40.214Z,24.79
2019-02-26T08:31:42.524Z,24.81
2019-02-26T08:32:48.371Z,24.74
2019-02-26T08:33:50.942Z,24.76
2019-02-26T08:34:49.792Z,24.77
2019-02-26T08:35:50.919Z,24.74
2019-02-26T08:36:52.085Z,24.75
2019-02-26T08:37:53.200Z,24.75
2019-02-26T08:38:56.451Z,24.71
2019-02-26T08:39:57.776Z,24.71
2019-02-26T08:40:59.461Z,24.68
2019-02-26T08:42:05.300Z,24.72
2019-02-26T08:43:06.419Z,24.73
2019-02-26T08:44:07.536Z,24.68
2019-02-26T08:45:17.845Z,24.71
2019-02-26T08:46:20.217Z,24.74
2019-02-26T08:47:23.381Z,24.71
2019-02-26T08:48:25.038Z,24.71
2019-02-26T08:49:27.402Z,24.75
2019-02-26T08:50:32.750Z,24.74
2019-02-26T08:51:31.539Z,24.75
2019-02-26T08:52:32.667Z,24.75
2019-02-26T08:53:33.789Z,24.76
2019-02-26T08:54:35.839Z,24.77
2019-02-26T08:55:37.238Z,24.80
2019-02-26T08:56:38.707Z,24.80
2019-02-26T08:57:41.477Z,24.81
2019-02-26T08:58:43.636Z,24.82
2019-02-26T08:59:47.303Z,24.83
2019-02-26T09:00:48.641Z,24.83
2019-02-26T09:01:49.757Z,24.85
2019-02-26T09:02:53.918Z,24.84
2019-02-26T09:03:55.831Z,24.86
2019-02-26T09:04:59.138Z,24.83
2019-02-26T09:06:11.015Z,24.85
2019-02-26T09:07:03.193Z,24.88
2019-02-26T09:08:05.929Z,24.88
2019-02-26T09:09:07.442Z,24.90
2019-02-26T09:10:15.825Z,24.89
2019-02-26T09:11:16.735Z,24.90
2019-02-26T09:12:19.746Z,24.88
2019-02-26T09:13:20.906Z,24.90
2019-02-26T09:14:22.021Z,24.86
2019-02-26T09:15:23.240Z,24.86
2019-02-26T09:16:25.675Z,24.85
2019-02-26T09:17:29.913Z,24.91
2019-02-26T09:18:31.543Z,24.85
2019-02-26T09:19:35.425Z,24.85
2019-02-26T09:20:36.486Z,24.90
2019-02-26T09:21:41.739Z,24.89
2019-02-26T09:22:45.678Z,24.87
2019-02-26T09:23:47.427Z,24.83
2019-02-26T09:24:46.881Z,24.86
2019-02-26T09:25:54.192Z,24.88
2019-02-26T09:26:54.837Z,24.89
2019-02-26T09:27:55.885Z,24.85
2019-02-26T09:28:57.205Z,24.86
2019-02-26T09:29:58.441Z,24.89
2019-02-26T09:31:03.733Z,24.87
2019-02-26T09:32:02.686Z,24.86
2019-02-26T09:33:05.847Z,24.86
2019-02-26T09:34:06.967Z,24.87
2019-02-26T09:35:10.585Z,24.87
2019-02-26T09:36:14.931Z,24.87
2019-02-26T09:37:14.824Z,24.87
2019-02-26T09:38:17.631Z,24.87
2019-02-26T09:39:19.076Z,24.87
2019-02-26T09:40:23.432Z,24.86
2019-02-26T09:41:23.212Z,24.87
2019-02-26T09:42:25.578Z,24.86
2019-02-26T09:43:27.563Z,24.87
2019-02-26T09:44:30.972Z,24.87
2019-02-26T09:45:32.018Z,24.88
2019-02-26T09:46:35.884Z,24.85
2019-02-26T09:47:36.292Z,24.87
2019-02-26T09:48:38.327Z,24.88
2019-02-26T09:49:40.576Z,24.87
2019-02-26T09:50:43.759Z,24.86
2019-02-26T09:51:44.712Z,24.86
2019-02-26T09:52:47.885Z,24.86
2019-02-26T09:53:50.089Z,24.87
2019-02-26T09:54:52.992Z,24.92
2019-02-26T09:55:55.033Z,24.93
2019-02-26T09:56:56.154Z,24.91
2019-02-26T09:57:57.267Z,24.92
2019-02-26T09:58:58.485Z,24.86
2019-02-26T10:00:00.661Z,24.91
2019-02-26T10:01:02.744Z,24.91
2019-02-26T10:02:05.928Z,24.88
2019-02-26T10:03:08.391Z,24.90
2019-02-26T10:04:10.104Z,24.87
2019-02-26T10:05:13.974Z,24.90
2019-02-26T10:06:16.774Z,24.90
2019-02-26T10:07:18.967Z,24.90
2019-02-26T10:08:22.221Z,24.91
2019-02-26T10:09:23.212Z,24.90
2019-02-26T10:10:26.051Z,24.84
2019-02-26T10:11:28.022Z,24.86
2019-02-26T10:12:29.876Z,24.83
2019-02-26T10:13:32.280Z,24.85
2019-02-26T10:14:35.668Z,24.88
2019-02-26T10:15:39.286Z,24.88
2019-02-26T10:16:39.759Z,24.87
2019-02-26T10:17:42.751Z,24.83
2019-02-26T10:18:45.027Z,24.80
2019-02-26T10:19:47.010Z,24.81
2019-02-26T10:20:49.926Z,24.78
2019-02-26T10:21:51.267Z,24.78
2019-02-26T10:22:53.217Z,24.75
2019-02-26T10:23:56.714Z,24.73
2019-02-26T10:24:58.413Z,24.75
2019-02-26T10:26:00.211Z,24.78
2019-02-26T10:27:05.455Z,24.92
2019-02-26T10:28:08.647Z,24.92
2019-02-26T10:29:08.686Z,24.87
2019-02-26T10:30:14.385Z,24.82
2019-02-26T10:31:15.432Z,24.80
2019-02-26T10:32:16.651Z,24.77
2019-02-26T10:33:20.876Z,24.78
2019-02-26T10:34:24.989Z,24.73
2019-02-26T10:35:32.553Z,24.74
2019-02-26T10:36:30.333Z,24.75
2019-02-26T10:37:31.895Z,24.76
2019-02-26T10:38:33.648Z,24.77
2019-02-26T10:39:36.177Z,24.76
2019-02-26T10:40:50.767Z,24.79
2019-02-26T10:41:42.277Z,24.77
2019-02-26T10:42:43.365Z,24.77
2019-02-26T10:43:44.489Z,24.77
2019-02-26T10:44:45.613Z,24.76
2019-02-26T10:45:47.442Z,24.80
2019-02-26T10:46:49.868Z,24.85
2019-02-26T10:47:51.733Z,24.83
2019-02-26T10:48:54.001Z,24.85
2019-02-26T10:49:56.483Z,24.84
2019-02-26T10:50:57.690Z,24.81
2019-02-26T10:51:58.831Z,24.82
2019-02-26T10:53:06.746Z,24.82
2019-02-26T10:54:05.699Z,24.83
2019-02-26T10:55:07.285Z,24.84
2019-02-26T10:56:08.413Z,24.84
2019-02-26T10:57:11.233Z,24.81
2019-02-26T10:58:13.310Z,24.83
2019-02-26T10:59:15.883Z,24.74
2019-02-26T11:00:27.944Z,24.82
2019-02-26T11:01:30.782Z,24.81
2019-02-26T11:02:31.550Z,24.78
2019-02-26T11:03:35.438Z,24.83
2019-02-26T11:04:40.918Z,24.82
2019-02-26T11:05:39.844Z,24.83
2019-02-26T11:06:44.308Z,24.86
2019-02-26T11:07:44.873Z,24.83
2019-02-26T11:08:47.559Z,24.86
2019-02-26T11:09:51.060Z,24.85
2019-02-26T11:10:52.528Z,24.87
2019-02-26T11:11:54.888Z,24.85
2019-02-26T11:12:59.610Z,24.84
2019-02-26T11:13:59.957Z,24.87
2019-02-26T11:15:02.437Z,24.87
2019-02-26T11:16:04.088Z,24.88
2019-02-26T11:17:05.200Z,24.80
2019-02-26T11:18:08.077Z,24.76
2019-02-26T11:19:11.831Z,24.81
2019-02-26T11:20:13.870Z,24.82
2019-02-26T11:21:15.242Z,24.84
2019-02-26T11:22:18.309Z,24.82
2019-02-26T11:23:19.382Z,24.81
2019-02-26T11:24:23.054Z,24.79
2019-02-26T11:25:24.823Z,24.77
2019-02-26T11:26:26.647Z,24.78
2019-02-26T11:27:27.762Z,24.77
2019-02-26T11:28:32.617Z,24.80
2019-02-26T11:29:33.807Z,24.74
2019-02-26T11:30:35.053Z,24.81
2019-02-26T11:31:36.985Z,24.79
2019-02-26T11:32:40.387Z,24.73
2019-02-26T11:33:42.219Z,24.76
2019-02-26T11:34:43.335Z,24.81
2019-02-26T11:35:47.138Z,24.84
2019-02-26T11:36:47.570Z,24.85
2019-02-26T11:37:51.755Z,24.84
2019-02-26T11:38:51.747Z,24.84
2019-02-26T11:39:55.017Z,24.86
2019-02-26T11:40:55.888Z,24.88
2019-02-26T11:41:59.372Z,24.87
2019-02-26T11:43:08.675Z,24.85
2019-02-26T11:44:07.357Z,24.85
2019-02-26T11:45:11.790Z,24.85
2019-02-26T11:46:12.530Z,24.83
2019-02-26T11:47:16.069Z,24.85
2019-02-26T11:48:17.598Z,24.91
2019-02-26T11:49:19.873Z,24.92
2019-02-26T11:50:27.095Z,24.89
2019-02-26T11:51:26.165Z,24.94
2019-02-26T11:52:27.446Z,24.95
2019-02-26T11:53:29.920Z,24.95
2019-02-26T11:54:34.377Z,24.97
2019-02-26T11:55:37.395Z,24.96
2019-02-26T11:56:42.043Z,24.95
2019-02-26T11:57:43.181Z,24.97
2019-02-26T11:58:44.021Z,24.96
2019-02-26T11:59:45.145Z,25.02
2019-02-26T12:00:51.044Z,25.04
2019-02-26T12:01:54.201Z,25.06
2019-02-26T12:02:55.640Z,25.05
2019-02-26T12:04:02.535Z,25.05
2019-02-26T12:05:00.536Z,25.06
2019-02-26T12:06:02.804Z,25.07
2019-02-26T12:07:06.599Z,25.05
2019-02-26T12:08:07.055Z,25.09
2019-02-26T12:09:10.742Z,25.13
2019-02-26T12:10:14.711Z,25.13
2019-02-26T12:11:17.727Z,25.15
2019-02-26T12:12:19.060Z,25.13
2019-02-26T12:13:22.220Z,25.17
2019-02-26T12:14:23.413Z,25.18
2019-02-26T12:15:24.570Z,25.15
2019-02-26T12:16:28.420Z,25.17
2019-02-26T12:17:28.800Z,25.17
2019-02-26T12:18:29.919Z,25.17
2019-02-26T12:19:34.267Z,25.19
2019-02-26T12:20:35.560Z,25.20
2019-02-26T12:21:37.226Z,25.19
2019-02-26T12:22:38.356Z,25.18
2019-02-26T12:23:41.673Z,25.13
2019-02-26T12:24:42.476Z,25.17
2019-02-26T12:25:43.601Z,25.16
2019-02-26T12:26:47.012Z,25.16
2019-02-26T12:27:48.258Z,25.15
2019-02-26T12:28:49.467Z,25.20
2019-02-26T12:29:51.732Z,25.20
2019-02-26T12:30:53.616Z,25.23
2019-02-26T12:31:55.736Z,25.24
2019-02-26T12:32:57.859Z,25.21
2019-02-26T12:33:58.975Z,25.21
2019-02-26T12:35:00.283Z,25.19
2019-02-26T12:36:02.576Z,25.17
2019-02-26T12:37:08.361Z,25.14
2019-02-26T12:38:17.751Z,25.20
2019-02-26T12:39:10.496Z,25.20
2019-02-26T12:40:19.196Z,25.20
2019-02-26T12:41:21.011Z,25.23
2019-02-26T12:42:22.299Z,25.22
2019-02-26T12:43:23.526Z,25.22
2019-02-26T12:44:24.641Z,25.23
2019-02-26T12:45:28.403Z,25.24
2019-02-26T12:46:31.218Z,25.20
2019-02-26T12:47:31.804Z,25.22
2019-02-26T12:48:36.587Z,25.22
2019-02-26T12:49:38.441Z,25.22
2019-02-26T12:50:40.331Z,25.28
2019-02-26T12:51:42.055Z,25.33
2019-02-26T12:52:44.730Z,25.29
2019-02-26T12:53:49.620Z,25.29
2019-02-26T12:54:49.324Z,25.29
2019-02-26T12:55:50.544Z,25.32
2019-02-26T12:56:54.782Z,25.31
2019-02-26T12:57:56.427Z,25.29
2019-02-26T12:58:57.794Z,25.27
2019-02-26T12:59:58.909Z,25.26
2019-02-26T13:01:00.129Z,25.25
2019-02-26T13:02:01.258Z,25.30
2019-02-26T13:03:05.589Z,25.31
2019-02-26T13:04:06.155Z,25.34
2019-02-26T13:05:11.464Z,25.35
2019-02-26T13:06:15.332Z,25.30
2019-02-26T13:07:15.801Z,25.34
2019-02-26T13:08:19.610Z,25.32
2019-02-26T13:09:19.947Z,25.33
2019-02-26T13:10:23.061Z,25.32
2019-02-26T13:11:25.134Z,25.29
2019-02-26T13:12:31.566Z,25.29
2019-02-26T13:13:29.582Z,25.27
2019-02-26T13:14:30.703Z,25.33
2019-02-26T13:15:31.828Z,25.33
2019-02-26T13:16:32.951Z,25.37
2019-02-26T13:17:34.085Z,25.33
2019-02-26T13:18:35.213Z,25.28
2019-02-26T13:19:37.166Z,25.28
2019-02-26T13:20:38.640Z,25.27
2019-02-26T13:21:42.898Z,25.24
2019-02-26T13:22:45.832Z,25.23
2019-02-26T13:23:45.821Z,25.23
2019-02-26T13:24:46.941Z,25.23
2019-02-26T13:25:48.056Z,25.19
2019-02-26T13:26:51.086Z,25.22